createdAt,value
2022-12-17T00:02:13.998Z,107.47
2022-12-17T00:04:59.327Z,95.68
2022-12-17T00:07:44.789Z,98.95
2022-12-17T00:10:29.988Z,108.20
2022-12-17T00:13:15.482Z,100.10
2022-12-17T00:16:01.024Z,99.00
2022-12-17T00:18:46.387Z,107.85
2022-12-17T00:21:51.732Z,102.53
2022-12-17T00:24:36.976Z,115.95
2022-12-17T00:27:22.400Z,109.22
2022-12-17T00:30:07.897Z,236.65
2022-12-17T00:32:53.254Z,93.78
2022-12-17T00:35:39.059Z,124.95
2022-12-17T00:38:24.074Z,101.80
2022-12-17T00:41:10.850Z,95.95
2022-12-17T00:43:56.554Z,106.30
2022-12-17T00:46:41.945Z,91.93
2022-12-17T00:49:27.208Z,103.85
2022-12-17T00:52:12.374Z,79.70
2022-12-17T00:54:57.853Z,83.35
2022-12-17T00:57:43.449Z,88.05
2022-12-17T01:00:29.565Z,83.22
2022-12-17T01:03:30.210Z,78.47
2022-12-17T01:06:19.239Z,82.50
2022-12-17T01:09:04.700Z,79.63
2022-12-17T01:11:50.396Z,77.80
2022-12-17T01:14:35.541Z,81.68
2022-12-17T01:17:21.134Z,75.18
2022-12-17T01:20:06.352Z,73.47
2022-12-17T01:22:51.827Z,87.22
2022-12-17T01:25:37.220Z,81.00
2022-12-17T01:28:22.573Z,89.53
2022-12-17T01:31:08.332Z,69.80
2022-12-17T01:33:53.852Z,73.55
2022-12-17T01:36:39.257Z,78.88
2022-12-17T01:39:24.747Z,79.85
2022-12-17T01:42:10.186Z,81.63
2022-12-17T01:44:58.503Z,88.20
2022-12-17T01:47:46.775Z,80.10
2022-12-17T01:50:32.992Z,69.78
2022-12-17T01:53:21.353Z,82.72
2022-12-17T01:56:07.540Z,82.22
2022-12-17T01:58:54.309Z,84.22
2022-12-17T02:01:40.615Z,87.55
2022-12-17T02:04:27.853Z,78.93
2022-12-17T02:07:35.091Z,78.70
2022-12-17T02:10:52.970Z,83.10
2022-12-17T02:13:49.218Z,77.45
2022-12-17T02:16:53.726Z,77.30
2022-12-17T02:19:49.625Z,85.40
2022-12-17T02:22:53.731Z,84.22
2022-12-17T02:26:00.561Z,78.93
2022-12-17T02:28:47.776Z,77.35
2022-12-17T02:31:34.980Z,86.13
2022-12-17T02:34:20.761Z,77.85
2022-12-17T02:37:06.102Z,74.03
2022-12-17T02:39:51.348Z,71.93
2022-12-17T02:42:37.605Z,75.53
2022-12-17T02:45:23.930Z,76.53
2022-12-17T02:48:10.522Z,66.65
2022-12-17T02:50:56.897Z,70.03
2022-12-17T02:53:42.430Z,68.05
2022-12-17T02:56:27.706Z,74.43
2022-12-17T02:59:13.277Z,69.72
2022-12-17T03:01:59.361Z,77.88
2022-12-17T03:04:44.607Z,62.78
2022-12-17T03:07:30.120Z,62.88
2022-12-17T03:10:15.582Z,72.25
2022-12-17T03:13:01.185Z,70.97
2022-12-17T03:15:46.401Z,62.85
2022-12-17T03:18:32.547Z,54.83
2022-12-17T03:21:18.185Z,52.13
2022-12-17T03:24:03.604Z,57.60
2022-12-17T03:26:50.033Z,49.67
2022-12-17T03:29:35.251Z,48.03
2022-12-17T03:32:20.525Z,56.97
2022-12-17T03:35:05.978Z,54.00
2022-12-17T03:37:51.327Z,47.65
2022-12-17T03:40:36.476Z,45.22
2022-12-17T03:43:26.552Z,45.47
2022-12-17T03:46:13.094Z,39.20
2022-12-17T03:48:58.380Z,45.45
2022-12-17T03:51:43.918Z,41.30
2022-12-17T03:54:29.343Z,45.30
2022-12-17T03:57:16.478Z,44.45
2022-12-17T04:00:01.821Z,46.10
2022-12-17T04:02:47.476Z,51.25
2022-12-17T04:05:33.345Z,44.88
2022-12-17T04:08:18.681Z,43.15
2022-12-17T04:11:04.159Z,40.47
2022-12-17T04:13:49.743Z,43.17
2022-12-17T04:16:48.654Z,47.65
2022-12-17T04:19:34.107Z,46.13
2022-12-17T04:22:20.447Z,44.75
2022-12-17T04:25:05.969Z,42.88
2022-12-17T04:27:51.317Z,47.47
2022-12-17T04:30:36.643Z,43.25
2022-12-17T04:33:22.191Z,50.20
2022-12-17T04:36:07.756Z,41.35
2022-12-17T04:38:53.247Z,53.30
2022-12-17T04:41:58.465Z,50.38
2022-12-17T04:44:43.857Z,47.88
2022-12-17T04:47:29.068Z,46.42
2022-12-17T04:50:14.590Z,45.53
2022-12-17T04:52:59.966Z,52.15
2022-12-17T04:55:45.436Z,47.75
2022-12-17T04:58:30.898Z,54.40
2022-12-17T05:01:16.646Z,53.45
2022-12-17T05:04:02.299Z,51.95
2022-12-17T05:06:47.918Z,55.20
2022-12-17T05:09:53.246Z,53.17
2022-12-17T05:12:38.519Z,49.38
2022-12-17T05:15:24.947Z,52.50
2022-12-17T05:18:11.408Z,43.17
2022-12-17T05:20:56.720Z,55.47
2022-12-17T05:23:42.300Z,55.15
2022-12-17T05:26:43.541Z,49.88
2022-12-17T05:29:29.423Z,50.17
2022-12-17T05:32:14.621Z,51.42
2022-12-17T05:34:59.952Z,50.70
2022-12-17T05:37:45.690Z,53.30
2022-12-17T05:40:31.134Z,53.47
2022-12-17T05:43:19.317Z,53.90
2022-12-17T05:46:05.717Z,49.03
2022-12-17T05:48:52.150Z,46.70
2022-12-17T05:51:39.064Z,52.45
2022-12-17T05:54:25.002Z,52.60
2022-12-17T05:57:10.550Z,44.28
2022-12-17T05:59:56.108Z,46.90
2022-12-17T06:02:41.669Z,42.95
2022-12-17T06:05:27.303Z,43.65
2022-12-17T06:08:12.822Z,43.47
2022-12-17T06:10:58.329Z,47.13
2022-12-17T06:13:43.893Z,39.47
2022-12-17T06:16:29.497Z,39.65
2022-12-17T06:19:15.145Z,46.53
2022-12-17T06:22:00.453Z,49.17
2022-12-17T06:24:46.405Z,44.67
2022-12-17T06:27:31.969Z,40.33
2022-12-17T06:30:18.880Z,39.85
2022-12-17T06:33:04.582Z,50.95
2022-12-17T06:35:49.960Z,37.85
2022-12-17T06:38:35.108Z,46.85
2022-12-17T06:41:21.020Z,43.53
2022-12-17T06:44:06.768Z,39.47
2022-12-17T06:46:52.028Z,36.55
2022-12-17T06:49:37.352Z,39.08
2022-12-17T06:52:22.873Z,36.22
2022-12-17T06:55:08.116Z,43.40
2022-12-17T06:58:10.458Z,50.50
2022-12-17T07:00:55.692Z,42.13
2022-12-17T07:03:41.346Z,38.17
2022-12-17T07:06:27.069Z,36.65
2022-12-17T07:09:12.347Z,35.95
2022-12-17T07:11:57.972Z,34.60
2022-12-17T07:14:43.269Z,39.10
2022-12-17T07:17:28.663Z,33.08
2022-12-17T07:20:14.049Z,42.00
2022-12-17T07:22:59.539Z,35.20
2022-12-17T07:25:46.323Z,37.92
2022-12-17T07:28:31.679Z,34.83
2022-12-17T07:31:17.000Z,41.25
2022-12-17T07:34:02.228Z,38.83
2022-12-17T07:36:47.576Z,33.45
2022-12-17T07:39:32.778Z,41.65
2022-12-17T07:42:17.884Z,35.20
2022-12-17T07:45:03.417Z,37.47
2022-12-17T07:47:48.584Z,42.10
2022-12-17T07:50:33.812Z,38.65
2022-12-17T07:53:20.883Z,40.75
2022-12-17T07:56:06.037Z,39.63
2022-12-17T07:58:51.458Z,39.47
2022-12-17T08:01:37.057Z,39.42
2022-12-17T08:04:22.717Z,36.63
2022-12-17T08:07:13.890Z,37.65
2022-12-17T08:09:59.844Z,37.35
2022-12-17T08:12:45.037Z,30.05
2022-12-17T08:15:30.407Z,37.03
2022-12-17T08:18:26.417Z,31.35
2022-12-17T08:21:12.374Z,31.35
2022-12-17T08:23:58.140Z,30.05
2022-12-17T08:26:47.873Z,34.42
2022-12-17T08:29:34.126Z,32.38
2022-12-17T08:32:19.513Z,33.13
2022-12-17T08:35:05.121Z,31.75
2022-12-17T08:37:50.288Z,27.20
2022-12-17T08:40:35.806Z,30.10
2022-12-17T08:43:21.376Z,29.10
2022-12-17T08:46:07.984Z,28.93
2022-12-17T08:48:53.403Z,28.00
2022-12-17T08:51:39.165Z,31.67
2022-12-17T08:54:24.763Z,34.90
2022-12-17T08:57:10.057Z,33.35
2022-12-17T08:59:56.022Z,31.80
2022-12-17T09:02:41.669Z,32.55
2022-12-17T09:05:27.629Z,31.95
2022-12-17T09:08:25.226Z,34.25
2022-12-17T09:11:10.855Z,32.33
2022-12-17T09:13:56.161Z,32.30
2022-12-17T09:16:42.256Z,38.45
2022-12-17T09:19:28.947Z,27.65
2022-12-17T09:22:14.468Z,29.80
2022-12-17T09:24:59.977Z,33.22
2022-12-17T09:27:45.372Z,36.10
2022-12-17T09:30:31.651Z,33.00
2022-12-17T09:33:16.944Z,30.65
2022-12-17T09:36:02.537Z,35.25
2022-12-17T09:38:47.984Z,31.35
2022-12-17T09:41:58.341Z,30.02
2022-12-17T09:45:01.813Z,30.42
2022-12-17T09:48:00.432Z,27.02
2022-12-17T09:50:45.793Z,23.95
2022-12-17T09:53:54.559Z,27.10
2022-12-17T09:56:44.170Z,27.05
2022-12-17T09:59:46.265Z,28.58
2022-12-17T10:02:51.937Z,28.05
2022-12-17T10:05:45.176Z,29.67
2022-12-17T10:08:36.624Z,28.20
2022-12-17T10:11:42.513Z,29.45
2022-12-17T10:14:34.226Z,35.42
2022-12-17T10:17:19.471Z,37.22
2022-12-17T10:20:09.388Z,34.63
2022-12-17T10:23:07.987Z,36.45
2022-12-17T10:25:54.739Z,30.55
2022-12-17T10:28:43.253Z,37.67
2022-12-17T10:31:34.590Z,33.08
2022-12-17T10:34:19.904Z,33.20
2022-12-17T10:37:08.658Z,27.38
2022-12-17T10:39:54.846Z,28.85
2022-12-17T10:42:43.833Z,29.23
2022-12-17T10:45:50.676Z,31.58
2022-12-17T10:48:47.374Z,28.90
2022-12-17T10:51:51.415Z,29.95
2022-12-17T10:54:48.749Z,25.63
2022-12-17T10:57:50.190Z,32.65
2022-12-17T11:00:50.211Z,30.80
2022-12-17T11:03:50.693Z,31.88
2022-12-17T11:06:43.802Z,33.70
2022-12-17T11:09:53.181Z,32.55
2022-12-17T11:12:43.686Z,26.27
2022-12-17T11:16:12.294Z,32.53
2022-12-17T11:19:15.970Z,31.83
2022-12-17T11:22:10.949Z,28.02
2022-12-17T11:25:34.101Z,29.40
2022-12-17T11:28:32.510Z,27.33
2022-12-17T11:31:33.924Z,28.70
2022-12-17T11:34:31.207Z,29.55
2022-12-17T11:37:32.991Z,30.80
2022-12-17T11:40:39.406Z,33.22
2022-12-17T11:43:42.895Z,28.20
2022-12-17T11:46:46.336Z,26.52
2022-12-17T11:50:01.766Z,29.40
2022-12-17T11:53:01.708Z,26.45
2022-12-17T11:56:05.467Z,26.17
2022-12-17T11:59:10.469Z,30.85
2022-12-17T12:01:55.693Z,27.52
2022-12-17T12:05:00.232Z,28.38
2022-12-17T12:08:01.596Z,33.50
2022-12-17T12:11:31.357Z,24.48
2022-12-17T12:14:19.904Z,28.88
2022-12-17T12:17:38.965Z,26.77
2022-12-17T12:21:02.346Z,28.25
2022-12-17T12:24:12.298Z,23.52
2022-12-17T12:27:25.500Z,26.98
2022-12-17T12:30:35.067Z,23.95
2022-12-17T12:33:39.120Z,27.10
2022-12-17T12:36:28.924Z,28.17
2022-12-17T12:39:16.634Z,29.90
2022-12-17T12:42:23.506Z,24.65
2022-12-17T12:45:43.159Z,26.35
2022-12-17T12:49:13.298Z,26.20
2022-12-17T12:51:58.819Z,27.23
2022-12-17T12:54:46.288Z,26.73
2022-12-17T12:58:22.253Z,25.52
2022-12-17T13:01:07.819Z,26.55
2022-12-17T13:04:07.818Z,19.02
2022-12-17T13:06:55.709Z,25.88
2022-12-17T13:09:34.227Z,23.98
2022-12-17T13:12:04.778Z,23.08
2022-12-17T13:14:33.943Z,25.85
2022-12-17T13:17:27.506Z,25.10
2022-12-17T13:19:57.459Z,23.38
2022-12-17T13:22:24.825Z,22.80
2022-12-17T13:24:54.808Z,26.15
2022-12-17T13:27:36.555Z,19.33
2022-12-17T13:30:23.839Z,25.95
2022-12-17T13:33:24.231Z,23.83
2022-12-17T13:35:53.990Z,20.48
2022-12-17T13:38:48.741Z,19.80
2022-12-17T13:41:19.027Z,23.02
2022-12-17T13:43:50.171Z,24.13
2022-12-17T13:46:21.576Z,24.20
2022-12-17T13:48:54.248Z,23.50
2022-12-17T13:51:22.405Z,26.35
2022-12-17T13:53:58.931Z,23.38
2022-12-17T13:56:31.820Z,25.63
2022-12-17T13:59:08.173Z,26.05
2022-12-17T14:01:48.625Z,29.13
2022-12-17T14:04:25.979Z,26.38
2022-12-17T14:06:59.041Z,24.23
2022-12-17T14:09:33.591Z,22.80
2022-12-17T14:12:22.087Z,20.65
2022-12-17T14:15:24.675Z,24.77
2022-12-17T14:17:53.145Z,22.33
2022-12-17T14:20:23.611Z,22.85
2022-12-17T14:22:59.030Z,26.45
2022-12-17T14:25:38.089Z,23.10
2022-12-17T14:28:06.382Z,27.40
2022-12-17T14:31:02.540Z,28.45
2022-12-17T14:33:35.939Z,24.33
2022-12-17T14:36:08.964Z,28.95
2022-12-17T14:38:38.942Z,26.13
2022-12-17T14:41:32.888Z,20.77
2022-12-17T14:44:01.270Z,24.80
2022-12-17T14:46:29.768Z,26.88
2022-12-17T14:49:01.583Z,22.65
2022-12-17T14:51:49.249Z,24.13
2022-12-17T14:54:20.541Z,23.05
2022-12-17T14:56:49.228Z,25.73
2022-12-17T14:59:26.804Z,22.50
2022-12-17T15:01:56.314Z,27.55
2022-12-17T15:04:23.937Z,26.20
2022-12-17T15:06:54.586Z,26.23
2022-12-17T15:09:22.035Z,24.15
2022-12-17T15:11:49.302Z,27.38
2022-12-17T15:14:16.072Z,22.00
2022-12-17T15:16:43.148Z,24.38
2022-12-17T15:19:10.071Z,24.27
2022-12-17T15:21:36.887Z,25.20
2022-12-17T15:24:04.176Z,28.23
2022-12-17T15:26:30.934Z,37.15
2022-12-17T15:28:57.806Z,36.67
2022-12-17T15:31:26.141Z,36.67
2022-12-17T15:33:54.277Z,34.17
2022-12-17T15:36:21.052Z,36.40
2022-12-17T15:38:47.763Z,34.90
2022-12-17T15:41:33.046Z,37.22
2022-12-17T15:43:59.893Z,35.88
2022-12-17T15:46:26.837Z,38.80
2022-12-17T15:48:53.577Z,39.25
2022-12-17T15:51:21.187Z,38.20
2022-12-17T15:53:48.304Z,37.33
2022-12-17T15:56:34.808Z,37.42
2022-12-17T15:59:01.633Z,36.55
2022-12-17T16:01:28.594Z,37.83
2022-12-17T16:03:55.577Z,35.55
2022-12-17T16:06:22.344Z,45.00
2022-12-17T16:08:49.033Z,42.08
2022-12-17T16:11:16.112Z,44.72
2022-12-17T16:13:43.205Z,39.00
2022-12-17T16:16:10.178Z,41.05
2022-12-17T16:18:38.727Z,40.42
2022-12-17T16:21:07.993Z,42.20
2022-12-17T16:23:36.162Z,38.25
2022-12-17T16:26:04.753Z,45.60
2022-12-17T16:28:31.744Z,41.25
2022-12-17T16:31:15.953Z,43.38
2022-12-17T16:33:44.359Z,36.22
2022-12-17T16:36:13.637Z,43.58
2022-12-17T16:38:48.879Z,37.08
2022-12-17T16:41:16.995Z,41.78
2022-12-17T16:43:44.195Z,47.22
2022-12-17T16:46:37.934Z,40.80
2022-12-17T16:49:18.774Z,48.08
2022-12-17T16:51:48.640Z,42.40
2022-12-17T16:54:21.276Z,42.67
2022-12-17T16:56:48.599Z,39.92
2022-12-17T16:59:16.517Z,42.85
2022-12-17T17:01:46.237Z,43.55
2022-12-17T17:04:15.524Z,43.22
2022-12-17T17:06:47.486Z,40.97
2022-12-17T17:09:15.631Z,43.95
2022-12-17T17:11:46.992Z,45.25
2022-12-17T17:14:17.108Z,41.83
2022-12-17T17:16:43.803Z,39.40
2022-12-17T17:19:10.630Z,43.80
2022-12-17T17:21:42.707Z,45.00
2022-12-17T17:24:21.152Z,43.60
2022-12-17T17:26:49.190Z,41.33
2022-12-17T17:29:16.105Z,43.05
2022-12-17T17:34:29.577Z,38.03
2022-12-17T17:36:56.302Z,38.15
2022-12-17T17:39:23.131Z,38.50
2022-12-17T17:41:49.900Z,40.63
2022-12-17T17:44:16.828Z,39.22
2022-12-17T17:46:43.751Z,39.00
2022-12-17T17:49:11.788Z,48.83
2022-12-17T17:54:30.747Z,36.97
2022-12-17T17:56:57.503Z,45.78
2022-12-17T17:59:32.593Z,52.25
2022-12-17T18:02:00.899Z,38.72
2022-12-17T18:04:28.009Z,38.67
2022-12-17T18:09:41.764Z,31.58
2022-12-17T18:12:27.056Z,33.13
2022-12-17T18:17:40.462Z,29.48
2022-12-17T18:20:07.742Z,28.35
2022-12-17T18:22:34.393Z,26.40
2022-12-17T18:25:01.188Z,24.42
2022-12-17T18:27:28.070Z,21.77
2022-12-17T18:29:54.760Z,26.02
2022-12-17T18:32:21.436Z,26.88
2022-12-17T18:34:48.253Z,27.38
2022-12-17T18:37:15.098Z,22.35
2022-12-17T18:39:41.857Z,23.67
2022-12-17T18:42:27.831Z,22.40
2022-12-17T18:44:54.603Z,24.52
2022-12-17T18:47:21.501Z,20.63
2022-12-17T18:49:48.527Z,22.38
2022-12-17T18:52:17.359Z,22.63
2022-12-17T18:54:45.145Z,21.70
2022-12-17T18:57:11.908Z,21.23
2022-12-17T18:59:40.618Z,23.45
2022-12-17T19:02:13.483Z,19.63
2022-12-17T19:04:40.905Z,22.75
2022-12-17T19:07:07.564Z,20.60
2022-12-17T19:09:38.366Z,22.40
2022-12-17T19:12:06.989Z,20.20
2022-12-17T19:14:34.581Z,17.73
2022-12-17T19:17:01.590Z,21.92
2022-12-17T19:19:28.310Z,17.00
2022-12-17T19:21:55.958Z,20.13
2022-12-17T19:24:23.405Z,20.77
2022-12-17T19:26:50.634Z,19.55
2022-12-17T19:29:18.908Z,18.77
2022-12-17T19:31:46.103Z,15.98
2022-12-17T19:34:15.393Z,18.00
2022-12-17T19:36:43.283Z,21.10
2022-12-17T19:39:18.016Z,18.17
2022-12-17T19:41:45.075Z,18.20
2022-12-17T19:44:14.448Z,17.55
2022-12-17T19:46:42.004Z,17.30
2022-12-17T19:49:11.819Z,18.48
2022-12-17T19:51:43.031Z,16.33
2022-12-17T19:54:15.142Z,19.35
2022-12-17T19:56:44.117Z,19.48
2022-12-17T19:59:11.986Z,17.00
2022-12-17T20:01:44.720Z,13.82
2022-12-17T20:04:13.108Z,19.63
2022-12-17T20:06:39.848Z,16.42
2022-12-17T20:09:07.745Z,17.35
2022-12-17T20:11:35.522Z,19.75
2022-12-17T20:14:05.533Z,18.95
2022-12-17T20:16:37.987Z,18.52
2022-12-17T20:19:06.680Z,16.20
2022-12-17T20:21:33.596Z,15.25
2022-12-17T20:24:01.419Z,15.65
2022-12-17T20:26:28.123Z,16.33
2022-12-17T20:28:55.619Z,21.90
2022-12-17T20:31:22.483Z,22.23
2022-12-17T20:33:49.367Z,21.15
2022-12-17T20:36:18.467Z,17.55
2022-12-17T20:38:45.827Z,15.82
2022-12-17T20:41:18.816Z,15.20
2022-12-17T20:43:46.232Z,17.95
2022-12-17T20:46:14.034Z,16.25
2022-12-17T20:48:42.365Z,16.95
2022-12-17T20:51:12.047Z,24.27
2022-12-17T20:53:39.555Z,16.80
2022-12-17T20:56:12.436Z,16.02
2022-12-17T20:58:41.123Z,14.18
2022-12-17T21:01:19.760Z,15.43
2022-12-17T21:03:49.476Z,16.17
2022-12-17T21:06:19.918Z,14.68
2022-12-17T21:08:50.264Z,14.25
2022-12-17T21:11:19.310Z,12.15
2022-12-17T21:13:46.766Z,14.65
2022-12-17T21:16:25.302Z,13.23
2022-12-17T21:18:52.093Z,14.65
2022-12-17T21:21:21.415Z,14.35
2022-12-17T21:23:48.880Z,14.63
2022-12-17T21:26:27.560Z,13.60
2022-12-17T21:28:59.447Z,12.52
2022-12-17T21:31:41.043Z,13.07
2022-12-17T21:34:11.629Z,11.90
2022-12-17T21:36:38.960Z,12.27
2022-12-17T21:39:08.707Z,13.27
2022-12-17T21:41:39.251Z,11.50
2022-12-17T21:44:13.349Z,13.52
2022-12-17T21:46:41.409Z,14.45
2022-12-17T21:49:08.200Z,10.27
2022-12-17T21:51:35.191Z,10.57
2022-12-17T21:54:08.764Z,14.10
2022-12-17T21:56:36.652Z,15.95
2022-12-17T21:59:03.712Z,13.15
2022-12-17T22:01:33.081Z,13.95
2022-12-17T22:04:01.496Z,11.70
2022-12-17T22:06:31.857Z,10.85
2022-12-17T22:09:09.464Z,12.70
2022-12-17T22:12:10.722Z,16.02
2022-12-17T22:14:37.774Z,13.90
2022-12-17T22:17:04.574Z,12.45
2022-12-17T22:19:31.320Z,14.57
2022-12-17T22:21:58.188Z,13.48
2022-12-17T22:24:25.286Z,20.13
2022-12-17T22:26:59.428Z,13.30
2022-12-17T22:29:46.191Z,13.95
2022-12-17T22:32:31.884Z,13.55
2022-12-17T22:35:54.665Z,12.73
2022-12-17T22:40:14.472Z,12.27
2022-12-17T22:44:31.775Z,12.68
2022-12-17T22:44:46.465Z,10.15
2022-12-17T22:46:18.412Z,10.57
2022-12-17T22:48:45.426Z,13.90
2022-12-17T22:51:15.181Z,10.35
2022-12-17T22:53:49.419Z,11.25
2022-12-17T22:56:26.800Z,11.30
2022-12-17T22:59:04.175Z,13.20
2022-12-17T23:01:31.296Z,14.18
2022-12-17T23:04:00.155Z,9.80
2022-12-17T23:06:27.443Z,9.23
2022-12-17T23:08:54.572Z,9.30
2022-12-17T23:11:24.047Z,10.25
2022-12-17T23:13:51.483Z,10.77
2022-12-17T23:16:18.513Z,9.63
2022-12-17T23:18:46.858Z,9.57
2022-12-17T23:21:20.003Z,10.98
2022-12-17T23:23:47.153Z,11.18
2022-12-17T23:26:20.636Z,12.25
2022-12-17T23:28:48.369Z,10.82
2022-12-17T23:31:17.998Z,10.25
2022-12-17T23:33:45.774Z,13.65
2022-12-17T23:36:23.428Z,11.30
2022-12-17T23:38:50.919Z,12.13
2022-12-17T23:41:24.208Z,12.18
2022-12-17T23:43:50.931Z,10.45
2022-12-17T23:46:18.880Z,11.50
2022-12-17T23:48:47.570Z,11.18
2022-12-17T23:51:16.149Z,11.23
2022-12-17T23:53:43.910Z,16.05
2022-12-17T23:56:12.254Z,10.50
2022-12-17T23:58:39.999Z,10.27
